Wetterdaten: Woche 25.06.07 - 01.07.07 (KW26)
Datum Zeit Temperatur Luftfeuchte Luftdruck Niederschlag Wind Richtung Sonnenschein Solar Taupunkt Windchill Windben
25.06.2007 00:00 18.7 C 84 % 1011.0 hPa 0.0 l/m 0.5 km/h (0 Bft) O 0.00 h 0 W/m 16.0 C 18.7 C 1.3 km/h (1 Bft)
25.06.2007 01:00 18.1 C 84 % 1010.3 hPa 0.0 l/m 3.5 km/h (1 Bft) O-SO 0.00 h 0 W/m 15.3 C 18.1 C 4.9 km/h (1 Bft)
25.06.2007 02:00 17.0 C 87 % 1009.6 hPa 0.0 l/m 1.2 km/h (1 Bft) O 0.00 h 0 W/m 14.8 C 17.0 C 2.3 km/h (1 Bft)
25.06.2007 03:00 16.0 C 89 % 1009.2 hPa 0.0 l/m 0.4 km/h (0 Bft) O-SO 0.00 h 0 W/m 14.2 C 16.0 C 0.9 km/h (0 Bft)
25.06.2007 04:00 15.1 C 89 % 1008.8 hPa 0.0 l/m 0.4 km/h (0 Bft) O-SO 0.00 h 0 W/m 13.3 C 15.1 C 0.9 km/h (0 Bft)
25.06.2007 05:00 14.4 C 94 % 1008.5 hPa 0.0 l/m 0.6 km/h (0 Bft) O-SO 0.13 h 16 W/m 13.4 C 14.4 C 1.2 km/h (1 Bft)
25.06.2007 06:00 15.0 C 94 % 1008.8 hPa 0.0 l/m 0.8 km/h (0 Bft) O-SO 0.15 h 51 W/m 13.9 C 15.0 C 1.6 km/h (1 Bft)
25.06.2007 07:00 16.4 C 90 % 1009.0 hPa 0.0 l/m 1.3 km/h (1 Bft) S-SW 0.35 h 167 W/m 14.8 C 16.4 C 2.7 km/h (1 Bft)
25.06.2007 08:00 17.8 C 85 % 1009.3 hPa 0.2 l/m 1.6 km/h (1 Bft) SO 0.07 h 126 W/m 15.2 C 17.8 C 3.0 km/h (1 Bft)
25.06.2007 09:00 17.4 C 90 % 1009.8 hPa 0.4 l/m 2.4 km/h (1 Bft) S-SO 0.00 h 116 W/m 15.7 C 17.4 C 4.8 km/h (1 Bft)
25.06.2007 10:00 17.0 C 89 % 1009.9 hPa 1.2 l/m 3.2 km/h (1 Bft) SO 0.00 h 70 W/m 15.2 C 17.0 C 5.1 km/h (1 Bft)
25.06.2007 11:00 17.6 C 91 % 1009.6 hPa 0.2 l/m 0.8 km/h (0 Bft) O-SO 0.00 h 224 W/m 16.1 C 17.6 C 1.7 km/h (1 Bft)
25.06.2007 12:00 18.1 C 91 % 1009.1 hPa 0.6 l/m 0.7 km/h (0 Bft) SO 0.00 h 187 W/m 16.6 C 18.1 C 1.7 km/h (1 Bft)
25.06.2007 13:00 18.0 C 91 % 1008.8 hPa 0.6 l/m 2.8 km/h (1 Bft) S-SO 0.00 h 146 W/m 16.5 C 18.0 C 5.2 km/h (1 Bft)
25.06.2007 14:00 17.6 C 93 % 1008.4 hPa 0.6 l/m 2.2 km/h (1 Bft) S-SO 0.00 h 113 W/m 16.4 C 17.6 C 4.6 km/h (1 Bft)
25.06.2007 15:00 18.0 C 94 % 1007.9 hPa 0.0 l/m 0.8 km/h (0 Bft) S-SO 0.00 h 168 W/m 17.0 C 18.0 C 2.8 km/h (1 Bft)
25.06.2007 16:00 16.4 C 91 % 1008.1 hPa 0.2 l/m 12.9 km/h (3 Bft) W-NW 0.00 h 83 W/m 14.9 C 16.4 C 19.6 km/h (3 Bft)
25.06.2007 17:00 14.3 C 86 % 1008.8 hPa 0.0 l/m 18.2 km/h (3 Bft) W 0.00 h 67 W/m 12.1 C 14.3 C 26.9 km/h (4 Bft)
25.06.2007 18:00 14.2 C 85 % 1008.8 hPa 0.0 l/m 12.0 km/h (2 Bft) W-NW 0.00 h 36 W/m 11.6 C 14.2 C 18.9 km/h (3 Bft)
25.06.2007 19:00 13.6 C 91 % 1008.6 hPa 0.2 l/m 8.9 km/h (2 Bft) W 0.00 h 29 W/m 12.2 C 13.6 C 14.2 km/h (3 Bft)
25.06.2007 20:00 13.6 C 92 % 1008.9 hPa 0.0 l/m 2.1 km/h (1 Bft) W-SW 0.00 h 9 W/m 12.4 C 13.6 C 4.4 km/h (1 Bft)
25.06.2007 21:00 13.3 C 94 % 1009.4 hPa 0.2 l/m 1.8 km/h (1 Bft) W-SW 0.00 h 5 W/m 12.4 C 13.3 C 4.5 km/h (1 Bft)
25.06.2007 22:00 13.1 C 94 % 1009.5 hPa 0.0 l/m 1.7 km/h (1 Bft) S-SO 0.00 h 0 W/m 12.2 C 13.1 C 3.8 km/h (1 Bft)
25.06.2007 23:00 12.9 C 95 % 1009.1 hPa 0.0 l/m 1.7 km/h (1 Bft) W-SW 0.00 h 0 W/m 12.2 C 12.9 C 4.1 km/h (1 Bft)
26.06.2007 00:00 12.2 C 93 % 1009.1 hPa 0.0 l/m 2.1 km/h (1 Bft) W 0.00 h 0 W/m 11.2 C 12.2 C 4.0 km/h (1 Bft)
26.06.2007 01:00 12.2 C 91 % 1008.8 hPa 0.2 l/m 1.7 km/h (1 Bft) S-SO 0.00 h 0 W/m 10.7 C 12.2 C 3.8 km/h (1 Bft)
26.06.2007 02:00 13.0 C 74 % 1008.4 hPa 0.0 l/m 11.4 km/h (2 Bft) W 0.00 h 0 W/m 8.4 C 13.0 C 18.2 km/h (3 Bft)
26.06.2007 03:00 12.3 C 78 % 1007.8 hPa 0.0 l/m 3.9 km/h (1 Bft) S 0.00 h 0 W/m 8.6 C 12.3 C 7.9 km/h (2 Bft)
26.06.2007 04:00 11.5 C 82 % 1007.5 hPa 0.0 l/m 3.0 km/h (1 Bft) S-SO 0.00 h 0 W/m 8.4 C 11.5 C 6.7 km/h (2 Bft)
26.06.2007 05:00 11.7 C 82 % 1007.3 hPa 0.0 l/m 2.0 km/h (1 Bft) W-SW 0.23 h 18 W/m 8.7 C 11.7 C 4.9 km/h (1 Bft)
26.06.2007 06:00 12.1 C 82 % 1006.8 hPa 0.4 l/m 4.4 km/h (1 Bft) W-SW 0.02 h 20 W/m 9.2 C 12.1 C 9.3 km/h (2 Bft)
26.06.2007 07:00 11.7 C 88 % 1006.9 hPa 0.2 l/m 7.6 km/h (2 Bft) W 0.00 h 33 W/m 9.7 C 11.7 C 13.4 km/h (3 Bft)
26.06.2007 08:00 12.6 C 77 % 1007.3 hPa 0.0 l/m 12.5 km/h (3 Bft) W 0.00 h 45 W/m 8.7 C 12.6 C 21.3 km/h (4 Bft)
26.06.2007 09:00 14.1 C 69 % 1007.2 hPa 0.0 l/m 14.1 km/h (3 Bft) W-SW 0.00 h 144 W/m 8.5 C 14.1 C 23.6 km/h (4 Bft)
26.06.2007 10:00 14.4 C 72 % 1007.7 hPa 0.2 l/m 13.2 km/h (3 Bft) W-SW 0.00 h 181 W/m 9.4 C 14.4 C 22.4 km/h (4 Bft)
26.06.2007 11:00 15.4 C 68 % 1008.4 hPa 0.0 l/m 13.9 km/h (3 Bft) W 0.00 h 257 W/m 9.5 C 15.4 C 23.7 km/h (4 Bft)
26.06.2007 12:00 15.0 C 70 % 1008.7 hPa 0.4 l/m 13.6 km/h (3 Bft) W-SW 0.00 h 109 W/m 9.6 C 15.0 C 22.5 km/h (4 Bft)
26.06.2007 13:00 13.5 C 89 % 1009.4 hPa 1.0 l/m 11.6 km/h (2 Bft) W 0.00 h 223 W/m 11.7 C 13.5 C 18.5 km/h (3 Bft)
26.06.2007 14:00 14.2 C 90 % 1009.3 hPa 1.2 l/m 12.0 km/h (2 Bft) W 0.37 h 542 W/m 12.5 C 14.2 C 18.3 km/h (3 Bft)
26.06.2007 15:00 15.7 C 79 % 1009.2 hPa 0.4 l/m 10.9 km/h (2 Bft) W 0.27 h 353 W/m 12.1 C 15.7 C 17.1 km/h (3 Bft)
26.06.2007 16:00 14.3 C 86 % 1009.8 hPa 0.4 l/m 13.6 km/h (3 Bft) W 0.00 h 271 W/m 12.0 C 14.3 C 20.9 km/h (4 Bft)
26.06.2007 17:00 14.2 C 89 % 1009.9 hPa 0.4 l/m 8.8 km/h (2 Bft) W-NW 0.08 h 219 W/m 12.3 C 14.2 C 14.1 km/h (3 Bft)
26.06.2007 18:00 14.2 C 86 % 1009.9 hPa 0.2 l/m 11.9 km/h (2 Bft) W 0.00 h 122 W/m 11.8 C 14.2 C 17.6 km/h (3 Bft)
26.06.2007 19:00 12.6 C 86 % 1010.6 hPa 0.0 l/m 16.3 km/h (3 Bft) W 0.00 h 37 W/m 10.2 C 12.6 C 24.4 km/h (4 Bft)
26.06.2007 20:00 12.2 C 89 % 1010.9 hPa 0.2 l/m 11.5 km/h (2 Bft) W 0.00 h 29 W/m 10.4 C 12.2 C 18.5 km/h (3 Bft)
26.06.2007 21:00 11.9 C 89 % 1011.0 hPa 0.0 l/m 9.8 km/h (2 Bft) W 0.00 h 7 W/m 10.1 C 11.9 C 15.7 km/h (3 Bft)
26.06.2007 22:00 11.7 C 89 % 1011.3 hPa 0.0 l/m 2.9 km/h (1 Bft) S-SO 0.00 h 0 W/m 10.0 C 11.7 C 5.0 km/h (1 Bft)
26.06.2007 23:00 11.7 C 89 % 1011.5 hPa 0.0 l/m 1.2 km/h (1 Bft) S-SO 0.00 h 0 W/m 10.0 C 11.7 C 2.8 km/h (1 Bft)
27.06.2007 00:00 11.6 C 93 % 1011.6 hPa 0.0 l/m 1.4 km/h (1 Bft) W-SW 0.00 h 0 W/m 10.5 C 11.6 C 2.7 km/h (1 Bft)
27.06.2007 01:00 11.8 C 92 % 1011.3 hPa 0.0 l/m 1.3 km/h (1 Bft) W-NW 0.00 h 0 W/m 10.5 C 11.8 C 2.5 km/h (1 Bft)
27.06.2007 02:00 11.8 C 90 % 1010.9 hPa 0.0 l/m 2.0 km/h (1 Bft) W-SW 0.00 h 0 W/m 10.3 C 11.8 C 4.6 km/h (1 Bft)
27.06.2007 03:00 11.8 C 89 % 1010.9 hPa 0.0 l/m 1.6 km/h (1 Bft) W 0.00 h 0 W/m 10.0 C 11.8 C 3.6 km/h (1 Bft)
27.06.2007 04:00 11.6 C 90 % 1010.6 hPa 0.0 l/m 0.4 km/h (0 Bft) S 0.00 h 0 W/m 10.0 C 11.6 C 2.1 km/h (1 Bft)
27.06.2007 05:00 11.5 C 92 % 1010.6 hPa 0.0 l/m 0.7 km/h (0 Bft) S 0.00 h 5 W/m 10.3 C 11.5 C 2.0 km/h (1 Bft)
27.06.2007 06:00 11.4 C 93 % 1010.7 hPa 0.2 l/m 2.8 km/h (1 Bft) W 0.00 h 22 W/m 10.2 C 11.4 C 5.2 km/h (1 Bft)
27.06.2007 07:00 11.5 C 90 % 1010.7 hPa 0.2 l/m 2.6 km/h (1 Bft) W-SW 0.00 h 58 W/m 9.9 C 11.5 C 4.7 km/h (1 Bft)
27.06.2007 08:00 11.8 C 90 % 1010.8 hPa 0.0 l/m 1.3 km/h (1 Bft) S-SO 0.00 h 57 W/m 10.2 C 11.8 C 3.6 km/h (1 Bft)
27.06.2007 09:00 12.2 C 92 % 1011.2 hPa 0.2 l/m 0.3 km/h (0 Bft) SW 0.00 h 112 W/m 10.9 C 12.2 C 1.8 km/h (1 Bft)
27.06.2007 10:00 12.4 C 93 % 1011.0 hPa 1.4 l/m 5.7 km/h (1 Bft) W 0.00 h 127 W/m 11.3 C 12.4 C 8.8 km/h (2 Bft)
27.06.2007 11:00 12.4 C 94 % 1011.2 hPa 0.0 l/m 8.5 km/h (2 Bft) W 0.03 h 325 W/m 11.5 C 12.4 C 13.9 km/h (3 Bft)
27.06.2007 12:00 11.6 C 90 % 1011.8 hPa 0.2 l/m 11.7 km/h (2 Bft) W 0.00 h 212 W/m 10.0 C 11.6 C 17.6 km/h (3 Bft)
27.06.2007 13:00 12.8 C 86 % 1012.1 hPa 0.0 l/m 9.9 km/h (2 Bft) W 0.00 h 317 W/m 10.4 C 12.8 C 16.5 km/h (3 Bft)
27.06.2007 14:00 14.1 C 78 % 1012.2 hPa 0.0 l/m 13.0 km/h (3 Bft) W 0.37 h 537 W/m 10.4 C 14.1 C 19.8 km/h (3 Bft)
27.06.2007 15:00 15.5 C 69 % 1012.3 hPa 0.0 l/m 14.9 km/h (3 Bft) W 0.75 h 662 W/m 9.8 C 15.5 C 23.3 km/h (4 Bft)
27.06.2007 16:00 16.3 C 65 % 1012.2 hPa 0.0 l/m 16.5 km/h (3 Bft) W 0.90 h 830 W/m 9.6 C 16.3 C 25.2 km/h (4 Bft)
27.06.2007 17:00 15.5 C 66 % 1012.3 hPa 0.0 l/m 12.5 km/h (3 Bft) W 0.35 h 329 W/m 9.1 C 15.5 C 18.6 km/h (3 Bft)
27.06.2007 18:00 14.5 C 69 % 1012.7 hPa 0.0 l/m 9.0 km/h (2 Bft) W 0.00 h 109 W/m 8.8 C 14.5 C 14.4 km/h (3 Bft)
27.06.2007 19:00 13.9 C 67 % 1013.0 hPa 0.0 l/m 8.5 km/h (2 Bft) W 0.00 h 71 W/m 7.9 C 13.9 C 12.9 km/h (3 Bft)
27.06.2007 20:00 13.6 C 70 % 1013.3 hPa 0.0 l/m 6.5 km/h (2 Bft) W 0.00 h 28 W/m 8.2 C 13.6 C 10.1 km/h (2 Bft)
27.06.2007 21:00 13.0 C 71 % 1013.7 hPa 0.0 l/m 2.4 km/h (1 Bft) W-SW 0.00 h 7 W/m 7.9 C 13.0 C 5.4 km/h (1 Bft)
27.06.2007 22:00 12.5 C 76 % 1014.6 hPa 0.0 l/m 1.6 km/h (1 Bft) S-SO 0.00 h 0 W/m 8.4 C 12.5 C 3.4 km/h (1 Bft)
27.06.2007 23:00 12.1 C 84 % 1014.9 hPa 0.0 l/m 1.6 km/h (1 Bft) S 0.00 h 0 W/m 9.5 C 12.1 C 4.1 km/h (1 Bft)
28.06.2007 00:00 11.9 C 83 % 1015.0 hPa 0.0 l/m 1.0 km/h (0 Bft) S-SO 0.00 h 0 W/m 9.1 C 11.9 C 3.0 km/h (1 Bft)
28.06.2007 01:00 11.7 C 86 % 1014.9 hPa 0.0 l/m 0.8 km/h (0 Bft) S-SO 0.00 h 0 W/m 9.4 C 11.7 C 2.6 km/h (1 Bft)
28.06.2007 02:00 11.7 C 86 % 1014.7 hPa 0.0 l/m 1.0 km/h (0 Bft) S 0.00 h 0 W/m 9.4 C 11.7 C 2.5 km/h (1 Bft)
28.06.2007 03:00 11.0 C 88 % 1014.8 hPa 0.0 l/m 2.2 km/h (1 Bft) S-SO 0.00 h 0 W/m 9.0 C 11.0 C 4.1 km/h (1 Bft)
28.06.2007 04:00 10.8 C 90 % 1014.8 hPa 0.0 l/m 0.8 km/h (0 Bft) S-SO 0.00 h 0 W/m 9.3 C 10.8 C 2.3 km/h (1 Bft)
28.06.2007 05:00 10.8 C 90 % 1015.0 hPa 0.0 l/m 0.1 km/h (0 Bft) SO 0.00 h 7 W/m 9.2 C 10.8 C 1.0 km/h (0 Bft)
28.06.2007 06:00 11.0 C 89 % 1015.0 hPa 0.0 l/m 0.6 km/h (0 Bft) S-SO 0.00 h 24 W/m 9.4 C 11.0 C 1.6 km/h (1 Bft)
28.06.2007 07:00 11.8 C 87 % 1015.3 hPa 0.0 l/m 0.4 km/h (0 Bft) S 0.00 h 75 W/m 9.7 C 11.8 C 1.8 km/h (1 Bft)
28.06.2007 08:00 12.5 C 86 % 1015.4 hPa 0.0 l/m 0.9 km/h (0 Bft) W 0.00 h 110 W/m 10.2 C 12.5 C 2.7 km/h (1 Bft)
28.06.2007 09:00 13.3 C 80 % 1015.8 hPa 0.0 l/m 4.5 km/h (1 Bft) W-NW 0.07 h 225 W/m 9.9 C 13.3 C 7.4 km/h (2 Bft)
28.06.2007 10:00 14.5 C 71 % 1015.9 hPa 0.0 l/m 11.2 km/h (2 Bft) W 0.38 h 422 W/m 9.2 C 14.5 C 17.7 km/h (3 Bft)
28.06.2007 11:00 15.4 C 68 % 1015.8 hPa 0.0 l/m 9.5 km/h (2 Bft) W 0.28 h 456 W/m 9.4 C 15.4 C 15.5 km/h (3 Bft)
28.06.2007 12:00 15.9 C 65 % 1015.9 hPa 0.0 l/m 10.4 km/h (2 Bft) W 0.15 h 423 W/m 9.3 C 15.9 C 15.9 km/h (3 Bft)
28.06.2007 13:00 17.2 C 57 % 1015.7 hPa 0.0 l/m 14.4 km/h (3 Bft) W-NW 0.42 h 600 W/m 8.5 C 17.2 C 21.9 km/h (4 Bft)
28.06.2007 14:00 18.1 C 52 % 1015.7 hPa 0.0 l/m 18.7 km/h (3 Bft) W 0.97 h 787 W/m 8.2 C 18.1 C 27.1 km/h (4 Bft)
28.06.2007 15:00 17.7 C 53 % 1016.1 hPa 0.0 l/m 18.2 km/h (3 Bft) W 0.98 h 600 W/m 8.0 C 17.7 C 26.6 km/h (4 Bft)
28.06.2007 16:00 17.7 C 54 % 1016.2 hPa 0.0 l/m 17.1 km/h (3 Bft) W 0.68 h 501 W/m 8.2 C 17.7 C 25.5 km/h (4 Bft)
28.06.2007 17:00 17.3 C 55 % 1016.2 hPa 0.0 l/m 15.2 km/h (3 Bft) W 0.13 h 332 W/m 8.2 C 17.3 C 22.7 km/h (4 Bft)
28.06.2007 18:00 16.9 C 54 % 1016.4 hPa 0.0 l/m 12.3 km/h (3 Bft) W 0.15 h 233 W/m 7.7 C 16.9 C 19.4 km/h (3 Bft)
28.06.2007 19:00 16.6 C 59 % 1016.6 hPa 0.0 l/m 10.1 km/h (2 Bft) W 0.25 h 125 W/m 8.6 C 16.6 C 15.8 km/h (3 Bft)
28.06.2007 20:00 15.9 C 61 % 1016.9 hPa 0.0 l/m 8.0 km/h (2 Bft) W 0.00 h 50 W/m 8.5 C 15.9 C 12.0 km/h (2 Bft)
28.06.2007 21:00 15.1 C 65 % 1017.4 hPa 0.0 l/m 4.5 km/h (1 Bft) W 0.00 h 11 W/m 8.5 C 15.1 C 7.0 km/h (2 Bft)
28.06.2007 22:00 14.6 C 69 % 1017.8 hPa 0.0 l/m 2.1 km/h (1 Bft) W 0.00 h 0 W/m 8.9 C 14.6 C 3.5 km/h (1 Bft)
28.06.2007 23:00 14.0 C 76 % 1017.8 hPa 0.0 l/m 0.6 km/h (0 Bft) S-SW 0.00 h 0 W/m 9.8 C 14.0 C 1.3 km/h (1 Bft)
29.06.2007 00:00 13.6 C 78 % 1017.8 hPa 0.0 l/m 0.8 km/h (0 Bft) SO 0.00 h 0 W/m 9.8 C 13.6 C 1.7 km/h (1 Bft)
29.06.2007 01:00 13.1 C 82 % 1017.7 hPa 0.0 l/m 0.5 km/h (0 Bft) SO 0.00 h 0 W/m 10.1 C 13.1 C 1.0 km/h (0 Bft)
29.06.2007 02:00 12.8 C 87 % 1017.8 hPa 0.0 l/m 0.2 km/h (0 Bft) S 0.00 h 0 W/m 10.6 C 12.8 C 0.5 km/h (0 Bft)
29.06.2007 03:00 12.3 C 88 % 1017.8 hPa 0.0 l/m 0.9 km/h (0 Bft) S 0.00 h 0 W/m 10.5 C 12.3 C 1.9 km/h (1 Bft)
29.06.2007 04:00 12.0 C 89 % 1017.9 hPa 0.0 l/m 0.6 km/h (0 Bft) S 0.00 h 0 W/m 10.2 C 12.0 C 1.3 km/h (1 Bft)
29.06.2007 05:00 11.4 C 91 % 1017.9 hPa 0.0 l/m 0.7 km/h (0 Bft) S 0.00 h 10 W/m 9.9 C 11.4 C 1.7 km/h (1 Bft)
29.06.2007 06:00 11.1 C 92 % 1017.9 hPa 0.0 l/m 0.3 km/h (0 Bft) S 0.12 h 46 W/m 9.9 C 11.1 C 0.4 km/h (0 Bft)
29.06.2007 07:00 12.7 C 86 % 1018.0 hPa 0.0 l/m 0.1 km/h (0 Bft) S 0.82 h 194 W/m 10.5 C 12.7 C 0.6 km/h (0 Bft)
29.06.2007 08:00 14.3 C 78 % 1017.9 hPa 0.0 l/m 1.0 km/h (0 Bft) W-SW 0.97 h 350 W/m 10.5 C 14.3 C 2.5 km/h (1 Bft)
29.06.2007 09:00 16.5 C 69 % 1017.5 hPa 0.0 l/m 0.9 km/h (0 Bft) W 1.00 h 515 W/m 10.8 C 16.5 C 2.5 km/h (1 Bft)
29.06.2007 10:00 17.6 C 65 % 1016.9 hPa 0.0 l/m 2.1 km/h (1 Bft) W-NW 0.68 h 539 W/m 11.0 C 17.6 C 3.9 km/h (1 Bft)
29.06.2007 11:00 19.2 C 59 % 1016.5 hPa 0.0 l/m 3.4 km/h (1 Bft) W-NW 0.68 h 666 W/m 10.9 C 19.2 C 6.0 km/h (2 Bft)
29.06.2007 12:00 19.6 C 57 % 1016.5 hPa 0.0 l/m 7.6 km/h (2 Bft) W 0.35 h 581 W/m 10.9 C 19.6 C 12.0 km/h (2 Bft)
29.06.2007 13:00 21.2 C 52 % 1016.3 hPa 0.0 l/m 8.4 km/h (2 Bft) W 1.00 h 822 W/m 10.9 C 21.2 C 13.5 km/h (3 Bft)
29.06.2007 14:00 21.2 C 51 % 1015.9 hPa 0.0 l/m 9.1 km/h (2 Bft) W 0.82 h 702 W/m 10.7 C 21.2 C 13.7 km/h (3 Bft)
29.06.2007 15:00 21.8 C 51 % 1015.4 hPa 0.0 l/m 9.7 km/h (2 Bft) W 0.92 h 664 W/m 11.1 C 21.8 C 14.3 km/h (3 Bft)
29.06.2007 16:00 21.3 C 52 % 1015.3 hPa 0.0 l/m 13.4 km/h (3 Bft) W 0.43 h 442 W/m 11.0 C 21.3 C 20.4 km/h (4 Bft)
29.06.2007 17:00 20.4 C 53 % 1015.6 hPa 0.0 l/m 17.9 km/h (3 Bft) W-NW 0.45 h 363 W/m 10.5 C 20.4 C 26.0 km/h (4 Bft)
29.06.2007 18:00 19.6 C 54 % 1016.1 hPa 0.0 l/m 13.8 km/h (3 Bft) W 0.00 h 173 W/m 10.1 C 19.6 C 20.5 km/h (4 Bft)
29.06.2007 19:00 19.3 C 53 % 1016.4 hPa 0.0 l/m 12.0 km/h (2 Bft) W-NW 0.00 h 96 W/m 9.6 C 19.3 C 18.6 km/h (3 Bft)
29.06.2007 20:00 18.8 C 56 % 1016.7 hPa 0.0 l/m 9.4 km/h (2 Bft) W 0.00 h 51 W/m 9.9 C 18.8 C 13.9 km/h (3 Bft)
29.06.2007 21:00 17.8 C 61 % 1016.8 hPa 0.0 l/m 4.7 km/h (1 Bft) W 0.00 h 11 W/m 10.2 C 17.8 C 7.9 km/h (2 Bft)
29.06.2007 22:00 17.3 C 65 % 1017.4 hPa 0.0 l/m 5.5 km/h (1 Bft) W 0.00 h 0 W/m 10.7 C 17.3 C 8.4 km/h (2 Bft)
29.06.2007 23:00 17.0 C 67 % 1017.8 hPa 0.0 l/m 9.9 km/h (2 Bft) W 0.00 h 0 W/m 10.9 C 17.0 C 14.8 km/h (3 Bft)
30.06.2007 00:00 16.5 C 65 % 1018.0 hPa 0.0 l/m 12.2 km/h (2 Bft) W 0.00 h 0 W/m 9.9 C 16.5 C 18.3 km/h (3 Bft)
30.06.2007 01:00 16.2 C 63 % 1018.3 hPa 0.0 l/m 12.0 km/h (2 Bft) W 0.00 h 0 W/m 9.1 C 16.2 C 18.0 km/h (3 Bft)
30.06.2007 02:00 15.4 C 66 % 1018.5 hPa 0.0 l/m 7.4 km/h (2 Bft) W 0.00 h 0 W/m 9.1 C 15.4 C 11.0 km/h (2 Bft)
30.06.2007 03:00 14.3 C 73 % 1018.6 hPa 0.0 l/m 1.9 km/h (1 Bft) W 0.00 h 0 W/m 9.5 C 14.3 C 4.1 km/h (1 Bft)
30.06.2007 04:00 14.5 C 74 % 1018.6 hPa 0.0 l/m 1.8 km/h (1 Bft) S-SO 0.00 h 0 W/m 9.9 C 14.5 C 3.4 km/h (1 Bft)
30.06.2007 05:00 14.6 C 73 % 1018.6 hPa 0.0 l/m 0.7 km/h (0 Bft) S-SO 0.00 h 8 W/m 9.9 C 14.6 C 2.3 km/h (1 Bft)
30.06.2007 06:00 14.5 C 75 % 1018.9 hPa 0.0 l/m 2.1 km/h (1 Bft) S-SO 0.00 h 46 W/m 10.2 C 14.5 C 3.9 km/h (1 Bft)
30.06.2007 07:00 14.8 C 80 % 1019.2 hPa 0.0 l/m 0.5 km/h (0 Bft) S 0.00 h 91 W/m 11.3 C 14.8 C 1.6 km/h (1 Bft)
30.06.2007 08:00 16.6 C 73 % 1019.3 hPa 0.0 l/m 2.3 km/h (1 Bft) W-SW 0.35 h 271 W/m 11.8 C 16.6 C 5.0 km/h (1 Bft)
30.06.2007 09:00 16.9 C 69 % 1019.6 hPa 0.0 l/m 7.9 km/h (2 Bft) W 0.02 h 274 W/m 11.2 C 16.9 C 12.4 km/h (3 Bft)
30.06.2007 10:00 18.3 C 68 % 1019.3 hPa 0.0 l/m 5.0 km/h (1 Bft) W 0.30 h 437 W/m 12.2 C 18.3 C 8.4 km/h (2 Bft)
30.06.2007 11:00 19.3 C 66 % 1018.9 hPa 0.0 l/m 4.7 km/h (1 Bft) W 0.38 h 525 W/m 12.8 C 19.3 C 7.6 km/h (2 Bft)
30.06.2007 12:00 21.0 C 60 % 1018.3 hPa 0.0 l/m 2.8 km/h (1 Bft) O-SO 1.00 h 792 W/m 13.0 C 21.0 C 5.2 km/h (1 Bft)
30.06.2007 13:00 22.0 C 58 % 1017.8 hPa 0.0 l/m 5.2 km/h (1 Bft) W-NW 0.77 h 670 W/m 13.4 C 22.0 C 8.3 km/h (2 Bft)
30.06.2007 14:00 22.9 C 55 % 1017.3 hPa 0.0 l/m 5.5 km/h (1 Bft) W 0.98 h 681 W/m 13.5 C 22.9 C 8.9 km/h (2 Bft)
30.06.2007 15:00 23.3 C 55 % 1016.9 hPa 0.0 l/m 6.3 km/h (2 Bft) W 1.00 h 621 W/m 13.9 C 23.3 C 9.7 km/h (2 Bft)
30.06.2007 16:00 24.7 C 54 % 1016.3 hPa 0.0 l/m 4.3 km/h (1 Bft) W-SW 1.00 h 613 W/m 14.8 C 24.7 C 7.1 km/h (2 Bft)
30.06.2007 17:00 24.9 C 53 % 1015.8 hPa 0.0 l/m 5.3 km/h (1 Bft) W-SW 1.00 h 476 W/m 14.6 C 24.9 C 8.6 km/h (2 Bft)
30.06.2007 18:00 24.5 C 53 % 1015.4 hPa 0.0 l/m 3.9 km/h (1 Bft) W 0.95 h 321 W/m 14.4 C 24.5 C 6.3 km/h (2 Bft)
30.06.2007 19:00 23.6 C 56 % 1014.9 hPa 0.0 l/m 2.6 km/h (1 Bft) W 0.53 h 176 W/m 14.2 C 23.6 C 4.6 km/h (1 Bft)
30.06.2007 20:00 22.0 C 62 % 1014.7 hPa 0.0 l/m 0.4 km/h (0 Bft) W 0.00 h 59 W/m 14.4 C 22.0 C 0.9 km/h (0 Bft)
30.06.2007 21:00 19.3 C 74 % 1014.6 hPa 0.0 l/m 1.4 km/h (1 Bft) O-SO 0.02 h 13 W/m 14.6 C 19.3 C 2.3 km/h (1 Bft)
30.06.2007 22:00 16.9 C 84 % 1014.9 hPa 0.0 l/m 1.6 km/h (1 Bft) O-SO 0.00 h 0 W/m 14.3 C 16.9 C 2.5 km/h (1 Bft)
30.06.2007 23:00 15.7 C 88 % 1014.8 hPa 0.0 l/m 1.4 km/h (1 Bft) O-SO 0.00 h 0 W/m 13.8 C 15.7 C 2.4 km/h (1 Bft)
01.07.2007 00:00 15.0 C 90 % 1014.6 hPa 0.0 l/m 0.5 km/h (0 Bft) O-SO 0.00 h 0 W/m 13.4 C 15.0 C 1.2 km/h (1 Bft)
01.07.2007 01:00 14.2 C 93 % 1014.5 hPa 0.0 l/m 1.0 km/h (0 Bft) O-SO 0.00 h 0 W/m 13.1 C 14.2 C 2.0 km/h (1 Bft)
01.07.2007 02:00 13.6 C 93 % 1014.1 hPa 0.0 l/m 0.7 km/h (0 Bft) O-SO 0.00 h 0 W/m 12.5 C 13.6 C 1.3 km/h (1 Bft)
01.07.2007 03:00 12.9 C 96 % 1013.8 hPa 0.0 l/m 0.9 km/h (0 Bft) O-SO 0.00 h 0 W/m 12.2 C 12.9 C 1.8 km/h (1 Bft)
01.07.2007 04:00 12.6 C 96 % 1013.4 hPa 0.0 l/m 2.0 km/h (1 Bft) O-SO 0.00 h 0 W/m 12.0 C 12.6 C 3.0 km/h (1 Bft)
01.07.2007 05:00 12.3 C 97 % 1013.2 hPa 0.0 l/m 0.6 km/h (0 Bft) O-SO 0.00 h 10 W/m 11.8 C 12.3 C 1.6 km/h (1 Bft)
01.07.2007 06:00 12.5 C 97 % 1013.0 hPa 0.0 l/m 0.7 km/h (0 Bft) O-SO 0.00 h 54 W/m 12.1 C 12.5 C 1.6 km/h (1 Bft)
01.07.2007 07:00 13.9 C 94 % 1012.9 hPa 0.0 l/m 0.0 km/h (0 Bft) N 0.17 h 141 W/m 12.9 C 13.9 C 0.0 km/h (0 Bft)
01.07.2007 08:00 16.2 C 87 % 1012.7 hPa 0.0 l/m 0.2 km/h (0 Bft) O-SO 0.80 h 306 W/m 14.0 C 16.2 C 0.9 km/h (0 Bft)
01.07.2007 09:00 18.8 C 79 % 1012.5 hPa 0.0 l/m 1.3 km/h (1 Bft) O-SO 0.92 h 444 W/m 15.0 C 18.8 C 3.1 km/h (1 Bft)
01.07.2007 10:00 21.6 C 71 % 1012.1 hPa 0.0 l/m 2.6 km/h (1 Bft) SO 1.00 h 597 W/m 16.1 C 21.6 C 5.2 km/h (1 Bft)
01.07.2007 11:00 24.0 C 63 % 1011.5 hPa 0.0 l/m 2.6 km/h (1 Bft) S-SO 1.00 h 681 W/m 16.6 C 24.0 C 5.2 km/h (1 Bft)
01.07.2007 12:00 25.1 C 57 % 1011.0 hPa 0.0 l/m 2.7 km/h (1 Bft) W-SW 0.72 h 588 W/m 15.9 C 25.1 C 4.8 km/h (1 Bft)
01.07.2007 13:00 25.2 C 58 % 1010.6 hPa 0.0 l/m 3.9 km/h (1 Bft) W 0.17 h 474 W/m 16.2 C 25.2 C 6.7 km/h (2 Bft)
01.07.2007 14:00 25.1 C 57 % 1010.8 hPa 0.0 l/m 7.3 km/h (2 Bft) W 0.12 h 418 W/m 15.8 C 25.1 C 11.9 km/h (2 Bft)
01.07.2007 15:00 24.0 C 60 % 1010.5 hPa 0.0 l/m 5.9 km/h (2 Bft) W-SW 0.00 h 238 W/m 15.9 C 24.0 C 9.9 km/h (2 Bft)
01.07.2007 16:00 24.4 C 57 % 1010.9 hPa 0.0 l/m 11.4 km/h (2 Bft) W 0.00 h 268 W/m 15.2 C 24.4 C 17.0 km/h (3 Bft)
01.07.2007 17:00 23.5 C 63 % 1010.8 hPa 0.0 l/m 6.4 km/h (2 Bft) W 0.00 h 161 W/m 16.0 C 23.5 C 9.7 km/h (2 Bft)
01.07.2007 18:00 22.3 C 71 % 1010.7 hPa 0.0 l/m 4.0 km/h (1 Bft) O-SO 0.00 h 72 W/m 16.8 C 22.3 C 6.2 km/h (2 Bft)
01.07.2007 19:00 21.4 C 72 % 1010.8 hPa 0.0 l/m 3.5 km/h (1 Bft) S-SO 0.00 h 40 W/m 16.1 C 21.4 C 7.4 km/h (2 Bft)
01.07.2007 20:00 19.0 C 84 % 1011.8 hPa 0.6 l/m 9.5 km/h (2 Bft) S-SO 0.00 h 9 W/m 16.2 C 19.0 C 17.7 km/h (3 Bft)
01.07.2007 21:00 17.6 C 87 % 1012.2 hPa 0.2 l/m 8.4 km/h (2 Bft) S-SO 0.00 h 0 W/m 15.3 C 17.6 C 15.6 km/h (3 Bft)
01.07.2007 22:00 16.5 C 90 % 1012.3 hPa 0.0 l/m 2.3 km/h (1 Bft) S-SO 0.00 h 0 W/m 14.8 C 16.5 C 5.0 km/h (1 Bft)
01.07.2007 23:00 15.7 C 92 % 1011.7 hPa 0.0 l/m 0.7 km/h (0 Bft) NW 0.00 h 0 W/m 14.5 C 15.7 C 2.2 km/h (1 Bft)
Min-Datum _ 28.06.07 29.06.07 26.06.07 - 25.06.07 - - - 28.06.07 28.06.07 25.06.07
_ Min-Zeit 03:50 13:57 06:00 - 00:00 - - - 18:13 03:50 00:07
Minimum _ 10.6 C 46 % 1006.7 hPa - 0.0 km/h (0 Bft) - - - 6.4 C 10.6 C 0.0 km/h (0 Bft)
Max-Datum _ 01.07.07 27.06.07 30.06.07 27.06.07 25.06.07 - 25.06.07 27.06.07 01.07.07 01.07.07 25.06.07
_ Max-Zeit 12:37 11:08 09:30 10:39 16:29 - 05:43 14:37 11:29 12:37 16:28
Maximum _ 25.7 C 97 % 1019.6 hPa 1.4 l/m 32.2 km/h
W-NW (5 Bft)
- 0.02 h 1185 W/m 18.0 C 25.7 C 48.7 km/h
W (6 Bft)
Durchschnitt _ 15.8 C 77 % 1013.2 hPa #12.6 l/m 5.4 km/h (1 Bft) W #29:57 h 253 W/m 11.5 C 15.8 C 8.9 km/h (2 Bft)
© Kaiko 2007